Aeroporto :
LOGIN :

Iscrizione | Disclaimer

   EN    FR    IT 

 










Sommario :    VFR   VFR Marginale   IFR   IFR Intensivo   IFR Molto Intensivo
Visibilità : 
Base nubi : 
>= 8 km
>= 3000ft
5 / 8 km
1000 / 3000 ft
1500m / 5 km
500 / 1000 ft
800 / 1500m
200 / 500 ft
< 800m
< 200 ft
Simboli :   Temporali  Nebbia  Neve Forte  Precipitazioni Forti  Vento > 20 kt
SIGMETs :   Varie  Temporali  Ghiacco  Turbolenza  Onda orograficha  Ceneri Vulcaniche






- Altitudine del aeroporto : 325 ft
- Codice IATA : POX


LFPT - Pontoise

ULTIMO METAR :
  • 211530Z AUTO 26005KT 230V310 9000 TSRA FEW017/// BKN058/// ///CB 14/13 Q1007

METARs OBSOLETI :
  • 211500Z AUTO 26010KT 4300 0800 R05/1000D +TSRA BCFG FEW017/// BKN027/// OVC034/// ///CB 14/12 Q1007
  • 211430Z AUTO 30007G20KT 240V340 9999 VCTS SCT028/// BKN033/// BKN100/// ///CB 18/12 Q1006
  • 211400Z AUTO VRB03KT 9999 FEW027/// SCT098/// ///CB 19/13 Q1006
  • 211330Z AUTO 04003KT 340V070 9999 ///CB 19/13 Q1007
  • 211300Z AUTO VRB03KT 9999 ///CB 18/14 Q1007
  • 211230Z AUTO 13003KT 100V170 9999 -RA FEW022/// SCT029/// BKN035/// ///CB 16/14 Q1007
  • 211200Z AUTO 14006KT 9999 -RA FEW021/// BKN027/// BKN036/// ///CB 17/13 Q1007
  • 211130Z AUTO VRB01KT 9999 FEW022/// ///CB 18/13 Q1007
  • 211100Z AUTO VRB02KT 9999 BKN019/// ///CB 18/12 Q1007

TAF N/A
ATIS : +33 1 30 30 52 08



MetMap, La meteo Aeronautica in un colpo d'occhio ! - Copyright ORBIFLY Dicembre 2007 - Disclaimer

ORBIFLY MET'MAP TEAM :

Programmazione e sviluppo : Alexandra Zaïnal
Concezione : Baudouin d'Aumeries
Supporto tecnico e logistico : Manuel Goepfert
Aiuto : Marc-Olivier Méhu
Aiuto per la traduzione : Arnaldo La Scala




FONTI E CREDITI :

   NOAA